createdAt,value
2022-12-18T00:00:11.048Z,102836.69
2022-12-18T00:03:00.800Z,102830.06
2022-12-18T00:05:51.121Z,102834.22
2022-12-18T00:08:37.768Z,102835.41
2022-12-18T00:11:28.250Z,102831.81
2022-12-18T00:14:15.833Z,102835.31
2022-12-18T00:17:02.804Z,102840.19
2022-12-18T00:19:49.420Z,102847.72
2022-12-18T00:22:36.201Z,102848.09
2022-12-18T00:25:23.008Z,102847.31
2022-12-18T00:28:11.736Z,102826.63
2022-12-18T00:31:03.146Z,102842.25
2022-12-18T00:33:53.845Z,102786.28
2022-12-18T00:36:43.433Z,102844.19
2022-12-18T00:39:30.041Z,102840.16
2022-12-18T00:42:34.459Z,102839.56
2022-12-18T00:45:22.797Z,102838.19
2022-12-18T00:48:09.677Z,102837.28
2022-12-18T00:50:56.519Z,102839.56
2022-12-18T00:53:43.145Z,102848.13
2022-12-18T00:56:30.205Z,102838.56
2022-12-18T00:59:17.239Z,102849.66
2022-12-18T01:02:05.266Z,102841.94
2022-12-18T01:04:52.334Z,102841.69
2022-12-18T01:07:40.343Z,102844.72
2022-12-18T01:10:27.438Z,102847.69
2022-12-18T01:13:17.817Z,102853.47
2022-12-18T01:16:04.751Z,102857.03
2022-12-18T01:18:55.899Z,102867.19
2022-12-18T01:21:42.661Z,102860.84
2022-12-18T01:24:29.422Z,102847.28
2022-12-18T01:27:16.234Z,102856.25
2022-12-18T01:30:03.046Z,102857.22
2022-12-18T01:32:49.954Z,102854.56
2022-12-18T01:35:43.901Z,102867.66
2022-12-18T01:38:31.093Z,102869.72
2022-12-18T01:41:19.778Z,102871.88
2022-12-18T01:44:39.382Z,102870.59
2022-12-18T01:47:30.580Z,102869.41
2022-12-18T01:50:20.133Z,102873.88
2022-12-18T01:53:13.474Z,102874.25
2022-12-18T01:56:01.299Z,102870.97
2022-12-18T01:58:57.219Z,102876.44
2022-12-18T02:01:44.370Z,102875.44
2022-12-18T02:04:31.553Z,102878.81
2022-12-18T02:07:25.739Z,102873.63
2022-12-18T02:10:19.620Z,102872.75
2022-12-18T02:13:13.134Z,102877.13
2022-12-18T02:16:08.316Z,102881.50
2022-12-18T02:18:59.869Z,102870.63
2022-12-18T02:21:55.754Z,102893.84
2022-12-18T02:24:51.245Z,102882.84
2022-12-18T02:27:41.498Z,102881.13
2022-12-18T02:30:32.306Z,102884.19
2022-12-18T02:33:22.025Z,102885.50
2022-12-18T02:36:10.139Z,102887.84
2022-12-18T02:38:58.712Z,102883.78
2022-12-18T02:41:46.389Z,102883.25
2022-12-18T02:44:35.733Z,102900.06
2022-12-18T02:47:28.133Z,102907.06
2022-12-18T02:50:25.165Z,102906.09
2022-12-18T02:53:23.162Z,102908.63
2022-12-18T02:56:14.910Z,102908.69
2022-12-18T02:59:06.792Z,102902.94
2022-12-18T03:02:20.192Z,102903.97
2022-12-18T03:05:13.862Z,102904.97
2022-12-18T03:08:05.806Z,102902.78
2022-12-18T03:10:59.849Z,102911.06
2022-12-18T03:13:53.666Z,102905.22
2022-12-18T03:16:43.296Z,102906.19
2022-12-18T03:19:35.382Z,102921.66
2022-12-18T03:22:25.675Z,102914.38
2022-12-18T03:25:16.140Z,102909.78
2022-12-18T03:28:05.518Z,102903.19
2022-12-18T03:31:01.970Z,102910.69
2022-12-18T03:33:55.067Z,102908.22
2022-12-18T03:36:51.059Z,102911.28
2022-12-18T03:39:39.402Z,102917.13
2022-12-18T03:42:31.205Z,102929.22
2022-12-18T03:45:33.613Z,102913.41
2022-12-18T03:48:29.156Z,102916.22
2022-12-18T03:51:25.645Z,102908.16
2022-12-18T03:54:15.314Z,102910.81
2022-12-18T03:57:16.563Z,102925.75
2022-12-18T04:00:07.146Z,102931.25
2022-12-18T04:03:03.646Z,102927.53
2022-12-18T04:05:59.301Z,102921.06
2022-12-18T04:08:48.872Z,102920.06
2022-12-18T04:11:42.285Z,102905.97
2022-12-18T04:14:29.514Z,102916.34
2022-12-18T04:17:17.512Z,102926.44
2022-12-18T04:20:05.184Z,102920.78
2022-12-18T04:22:52.006Z,102935.13
2022-12-18T04:25:39.913Z,102925.06
2022-12-18T04:28:32.776Z,102933.13
2022-12-18T04:31:19.638Z,102937.16
2022-12-18T04:34:07.364Z,102941.19
2022-12-18T04:37:01.246Z,102932.34
2022-12-18T04:39:48.380Z,102935.13
2022-12-18T04:42:42.401Z,102931.25
2022-12-18T04:45:30.450Z,102933.84
2022-12-18T04:48:17.283Z,102919.78
2022-12-18T04:51:04.771Z,102940.91
2022-12-18T04:53:51.441Z,102937.56
2022-12-18T04:56:38.311Z,102909.19
2022-12-18T04:59:25.016Z,102936.75
2022-12-18T05:02:13.452Z,102945.41
2022-12-18T05:05:00.420Z,102944.06
2022-12-18T05:07:47.254Z,102962.53
2022-12-18T05:10:38.053Z,102964.75
2022-12-18T05:13:24.822Z,102958.72
2022-12-18T05:16:12.265Z,102948.13
2022-12-18T05:19:00.547Z,102955.84
2022-12-18T05:21:49.069Z,102968.84
2022-12-18T05:24:35.669Z,102974.78
2022-12-18T05:27:22.591Z,102978.94
2022-12-18T05:30:10.674Z,102967.97
2022-12-18T05:32:57.193Z,102983.19
2022-12-18T05:35:45.529Z,102995.88
2022-12-18T05:38:33.685Z,103000.91
2022-12-18T05:41:20.071Z,102995.31
2022-12-18T05:44:06.916Z,103001.03
2022-12-18T05:46:53.752Z,102998.66
2022-12-18T05:49:40.596Z,102970.97
2022-12-18T05:52:28.838Z,103002.91
2022-12-18T05:55:15.662Z,102996.31
2022-12-18T05:58:02.830Z,102993.06
2022-12-18T06:00:49.272Z,102993.16
2022-12-18T06:03:36.066Z,102997.78
2022-12-18T06:06:25.270Z,102995.63
2022-12-18T06:09:13.225Z,103015.47
2022-12-18T06:12:00.113Z,102999.78
2022-12-18T06:14:47.105Z,103022.66
2022-12-18T06:17:34.896Z,103020.41
2022-12-18T06:20:21.322Z,103019.19
2022-12-18T06:23:08.451Z,103014.69
2022-12-18T06:25:57.109Z,103021.31
2022-12-18T06:28:44.108Z,102963.50
2022-12-18T06:31:30.617Z,103027.38
2022-12-18T06:34:17.332Z,103038.34
2022-12-18T06:37:04.169Z,103039.69
2022-12-18T06:39:51.035Z,103057.84
2022-12-18T06:42:39.371Z,103062.31
2022-12-18T06:45:26.297Z,103064.09
2022-12-18T06:48:12.775Z,103073.22
2022-12-18T06:51:00.133Z,103073.84
2022-12-18T06:53:47.056Z,103075.09
2022-12-18T06:56:34.015Z,103032.06
2022-12-18T06:59:22.061Z,103069.84
2022-12-18T07:02:08.747Z,103080.03
2022-12-18T07:04:55.466Z,103070.50
2022-12-18T07:07:42.391Z,103076.47
2022-12-18T07:10:29.264Z,103075.00
2022-12-18T07:13:16.047Z,103074.88
2022-12-18T07:16:15.984Z,103060.09
2022-12-18T07:19:05.556Z,103062.22
2022-12-18T07:21:52.468Z,103067.50
2022-12-18T07:24:39.389Z,103072.19
2022-12-18T07:27:26.222Z,103077.34
2022-12-18T07:30:13.821Z,103077.91
2022-12-18T07:33:01.745Z,103070.03
2022-12-18T07:35:48.220Z,103089.66
2022-12-18T07:38:37.186Z,103084.63
2022-12-18T07:41:24.257Z,103085.72
2022-12-18T07:44:11.961Z,103086.56
2022-12-18T07:46:58.627Z,103096.19
2022-12-18T07:49:46.995Z,103095.31
2022-12-18T07:52:33.683Z,103093.41
2022-12-18T07:55:21.088Z,103090.38
2022-12-18T07:58:07.875Z,103104.28
2022-12-18T08:00:55.121Z,103097.88
2022-12-18T08:03:43.310Z,103088.22
2022-12-18T08:06:31.280Z,103087.13
2022-12-18T08:09:18.376Z,103090.47
2022-12-18T08:12:05.065Z,103082.19
2022-12-18T08:14:51.907Z,103092.97
2022-12-18T08:17:39.058Z,103094.41
2022-12-18T08:20:25.821Z,103093.28
2022-12-18T08:23:13.551Z,103094.41
2022-12-18T08:26:00.743Z,103096.66
2022-12-18T08:28:47.353Z,103088.16
2022-12-18T08:31:35.373Z,103097.00
2022-12-18T08:34:22.066Z,103097.47
2022-12-18T08:37:09.004Z,103105.31
2022-12-18T08:39:57.122Z,103098.59
2022-12-18T08:43:01.309Z,103104.28
2022-12-18T08:45:48.302Z,103107.44
2022-12-18T08:48:35.132Z,103114.84
2022-12-18T08:51:22.539Z,103112.50
2022-12-18T08:54:09.832Z,103110.34
2022-12-18T08:56:58.155Z,103116.19
2022-12-18T08:59:44.707Z,103112.03
2022-12-18T09:02:31.560Z,103122.25
2022-12-18T09:05:18.318Z,103122.00
2022-12-18T09:08:05.104Z,103126.94
2022-12-18T09:10:52.941Z,103123.06
2022-12-18T09:13:41.407Z,103120.34
2022-12-18T09:16:32.408Z,103133.16
2022-12-18T09:19:19.837Z,103131.03
2022-12-18T09:22:06.644Z,103141.91
2022-12-18T09:24:53.560Z,103145.41
2022-12-18T09:27:40.547Z,103150.78
2022-12-18T09:30:28.813Z,103152.34
2022-12-18T09:33:15.830Z,103147.75
2022-12-18T09:36:04.410Z,103151.44
2022-12-18T09:38:50.925Z,103140.44
2022-12-18T09:41:45.272Z,103130.56
2022-12-18T09:44:36.844Z,103135.50
2022-12-18T09:47:35.108Z,103135.34
2022-12-18T09:50:29.709Z,103127.22
2022-12-18T09:53:21.729Z,103120.41
2022-12-18T09:56:16.972Z,103114.69
2022-12-18T09:59:05.861Z,103114.91
2022-12-18T10:01:52.955Z,103108.72
2022-12-18T10:04:41.387Z,103105.66
2022-12-18T10:07:37.131Z,103106.16
2022-12-18T10:10:33.584Z,103071.72
2022-12-18T10:13:27.376Z,103089.28
2022-12-18T10:16:18.388Z,103096.06
2022-12-18T10:19:31.200Z,103090.84
2022-12-18T10:22:29.905Z,103086.47
2022-12-18T10:25:23.897Z,103083.44
2022-12-18T10:28:15.002Z,103084.16
2022-12-18T10:31:01.714Z,103073.97
2022-12-18T10:33:48.771Z,103077.75
2022-12-18T10:36:35.324Z,103070.63
2022-12-18T10:39:27.373Z,103073.94
2022-12-18T10:42:19.298Z,103057.63
2022-12-18T10:45:11.914Z,103060.81
2022-12-18T10:47:59.174Z,103063.13
2022-12-18T10:53:59.181Z,103055.13
2022-12-18T10:56:47.874Z,103049.19
2022-12-18T10:59:53.178Z,103047.69
2022-12-18T11:02:40.892Z,103041.53
2022-12-18T11:05:32.515Z,102875.97
2022-12-18T11:08:24.428Z,102978.94
2022-12-18T11:11:21.444Z,103038.19
2022-12-18T11:14:20.905Z,103035.09
2022-12-18T11:17:25.353Z,103032.81
2022-12-18T11:20:25.907Z,103039.66
2022-12-18T11:23:15.553Z,103024.75
2022-12-18T11:26:04.978Z,103023.56
2022-12-18T11:28:53.691Z,103017.44
2022-12-18T11:31:41.785Z,103020.31
2022-12-18T11:34:32.509Z,103027.38
2022-12-18T11:37:20.384Z,103030.88
2022-12-18T11:40:14.607Z,103031.06
2022-12-18T11:43:09.010Z,103037.13
2022-12-18T11:45:58.950Z,103047.78
2022-12-18T11:48:52.124Z,103040.72
2022-12-18T11:51:47.533Z,103047.00
2022-12-18T11:54:34.158Z,103051.09
2022-12-18T11:57:35.236Z,103060.03
2022-12-18T12:00:23.146Z,103051.06
2022-12-18T12:03:24.565Z,103059.34
2022-12-18T12:06:24.054Z,103068.00
2022-12-18T12:09:20.871Z,103066.41
2022-12-18T12:12:26.032Z,103062.81
2022-12-18T12:15:25.117Z,103059.34
2022-12-18T12:18:29.997Z,103054.44
2022-12-18T12:21:38.977Z,103059.50
2022-12-18T12:28:40.911Z,103077.47
2022-12-18T12:32:14.241Z,103079.34
2022-12-18T12:35:30.239Z,103072.97
2022-12-18T12:38:53.211Z,103075.88
2022-12-18T12:42:07.295Z,103079.25
2022-12-18T12:45:06.478Z,103083.22
2022-12-18T12:48:10.130Z,103084.19
2022-12-18T12:51:12.173Z,103084.13
2022-12-18T12:54:28.895Z,103056.34
2022-12-18T12:57:36.937Z,103073.25
2022-12-18T13:00:43.795Z,103069.47
2022-12-18T13:03:53.156Z,103060.03
2022-12-18T13:07:04.064Z,103051.44
2022-12-18T13:10:46.070Z,103054.44
2022-12-18T13:13:56.672Z,103036.22
2022-12-18T13:16:59.960Z,103032.25
2022-12-18T13:19:56.301Z,103016.44
2022-12-18T13:22:54.690Z,103025.88
2022-12-18T13:25:50.384Z,103026.41
2022-12-18T13:29:08.571Z,103036.84
2022-12-18T13:32:29.502Z,103050.47
2022-12-18T13:35:47.066Z,103055.75
2022-12-18T13:38:43.138Z,103050.97
2022-12-18T13:41:42.615Z,103037.94
2022-12-18T13:44:44.314Z,102891.25
2022-12-18T13:47:41.572Z,103041.63
2022-12-18T13:50:36.263Z,103035.03
2022-12-18T13:53:32.914Z,103032.03
2022-12-18T13:56:31.895Z,103003.19
2022-12-18T13:59:36.352Z,103022.69
2022-12-18T14:02:46.654Z,102949.91
2022-12-18T14:05:40.402Z,103003.47
2022-12-18T14:08:39.565Z,102986.88
2022-12-18T14:11:34.535Z,102981.56
2022-12-18T14:14:33.563Z,102996.19
2022-12-18T14:17:29.939Z,103005.81
2022-12-18T14:20:36.156Z,103007.69
2022-12-18T14:23:41.493Z,103002.94
2022-12-18T14:26:41.040Z,102996.28
2022-12-18T14:29:33.722Z,102983.56
2022-12-18T14:32:40.747Z,102968.13
2022-12-18T14:35:41.294Z,102981.94
2022-12-18T14:38:41.333Z,102969.53
2022-12-18T14:41:31.575Z,102964.03
2022-12-18T14:44:44.266Z,102965.13
2022-12-18T14:47:46.797Z,102955.47
2022-12-18T14:50:41.667Z,102953.19
2022-12-18T14:53:37.348Z,102941.34
2022-12-18T14:56:27.996Z,102939.75
2022-12-18T14:59:23.781Z,102932.47
2022-12-18T15:02:21.692Z,102930.59
2022-12-18T15:05:21.159Z,102930.41
2022-12-18T15:08:38.954Z,102939.06
2022-12-18T15:11:39.084Z,102944.44
2022-12-18T15:14:42.698Z,102956.38
2022-12-18T15:17:30.768Z,102974.25
2022-12-18T15:20:19.279Z,102978.66
2022-12-18T15:23:06.897Z,102989.66
2022-12-18T15:26:02.875Z,102994.84
2022-12-18T15:28:52.527Z,102990.56
2022-12-18T15:31:41.623Z,102993.94
2022-12-18T15:34:32.710Z,102997.78
2022-12-18T15:37:25.198Z,102977.97
2022-12-18T15:40:28.098Z,102985.59
2022-12-18T15:43:39.576Z,102986.03
2022-12-18T15:46:28.782Z,102975.84
2022-12-18T15:49:17.374Z,102979.75
2022-12-18T15:52:08.508Z,102973.88
2022-12-18T15:55:20.923Z,102972.50
2022-12-18T15:58:12.254Z,102974.38
2022-12-18T16:01:03.082Z,102980.56
2022-12-18T16:03:51.301Z,102814.06
2022-12-18T16:07:05.239Z,102970.41
2022-12-18T16:09:51.622Z,102959.78
2022-12-18T16:12:39.543Z,102941.16
2022-12-18T16:15:27.675Z,102958.28
2022-12-18T16:18:16.212Z,102959.97
2022-12-18T16:21:03.803Z,102956.00
2022-12-18T16:23:52.488Z,102956.78
2022-12-18T16:26:43.515Z,102958.09
2022-12-18T16:29:32.011Z,102954.31
2022-12-18T16:32:21.993Z,102955.78
2022-12-18T16:35:14.893Z,102950.81
2022-12-18T16:38:02.314Z,102951.13
2022-12-18T16:41:03.396Z,102913.03
2022-12-18T16:43:54.885Z,102935.19
2022-12-18T16:46:44.052Z,102945.25
2022-12-18T16:49:31.068Z,102952.50
2022-12-18T16:52:19.035Z,102952.78
2022-12-18T16:55:06.708Z,102957.28
2022-12-18T16:57:53.493Z,102949.72
2022-12-18T17:00:50.601Z,102944.94
2022-12-18T17:03:41.555Z,102925.16
2022-12-18T17:06:34.289Z,102937.59
2022-12-18T17:09:25.127Z,102895.72
2022-12-18T17:12:12.037Z,102941.56
2022-12-18T17:15:05.672Z,102957.28
2022-12-18T17:17:55.958Z,102961.75
2022-12-18T17:20:43.954Z,102957.63
2022-12-18T17:23:31.313Z,102867.59
2022-12-18T17:26:19.617Z,102947.03
2022-12-18T17:29:06.706Z,102955.03
2022-12-18T17:31:53.542Z,102961.81
2022-12-18T17:34:42.251Z,102963.44
2022-12-18T17:37:28.960Z,102966.53
2022-12-18T17:40:15.927Z,102973.16
2022-12-18T17:43:04.990Z,102967.53
2022-12-18T17:45:51.844Z,102972.69
2022-12-18T17:48:38.634Z,102960.84
2022-12-18T17:51:26.661Z,102956.28
2022-12-18T17:54:13.683Z,102959.66
2022-12-18T17:57:00.534Z,102945.75
2022-12-18T17:59:48.659Z,102951.31
2022-12-18T18:02:35.662Z,102938.97
2022-12-18T18:05:22.566Z,102931.72
2022-12-18T18:08:10.076Z,102940.97
2022-12-18T18:11:17.249Z,102934.50
2022-12-18T18:14:05.262Z,102924.88
2022-12-18T18:16:53.564Z,102919.50
2022-12-18T18:19:43.098Z,102911.94
2022-12-18T18:22:31.976Z,102906.66
2022-12-18T18:25:18.895Z,102902.78
2022-12-18T18:28:06.588Z,102902.38
2022-12-18T18:30:53.242Z,102896.94
2022-12-18T18:33:41.725Z,102889.56
2022-12-18T18:36:28.770Z,102888.25
2022-12-18T18:39:18.572Z,102885.59
2022-12-18T18:42:06.612Z,102888.09
2022-12-18T18:44:53.282Z,102877.75
2022-12-18T18:47:41.122Z,102874.06
2022-12-18T18:50:29.238Z,102873.16
2022-12-18T18:53:16.085Z,102870.00
2022-12-18T18:56:34.788Z,102863.03
2022-12-18T18:59:10.464Z,102856.47
2022-12-18T19:01:58.327Z,102842.75
2022-12-18T19:04:46.841Z,102843.53
2022-12-18T19:07:37.070Z,102837.47
2022-12-18T19:10:24.579Z,102844.25
2022-12-18T19:13:21.869Z,102838.41
2022-12-18T19:16:11.257Z,102837.97
2022-12-18T19:19:02.247Z,102832.84
2022-12-18T19:21:50.569Z,102835.19
2022-12-18T19:24:39.870Z,102845.63
2022-12-18T19:27:27.930Z,102841.47
2022-12-18T19:30:16.004Z,102831.34
2022-12-18T19:33:20.001Z,102829.53
2022-12-18T19:36:17.098Z,102835.41
2022-12-18T19:39:09.139Z,102825.69
2022-12-18T19:41:59.952Z,102809.69
2022-12-18T19:44:48.009Z,102813.53
2022-12-18T19:47:36.292Z,102783.75
2022-12-18T19:50:24.578Z,102805.59
2022-12-18T19:53:12.572Z,102713.75
2022-12-18T19:56:00.008Z,102805.69
2022-12-18T19:58:49.664Z,102805.78
2022-12-18T20:01:37.629Z,102808.19
2022-12-18T20:04:25.392Z,102787.50
2022-12-18T20:07:13.621Z,102789.78
2022-12-18T20:10:08.415Z,102782.34
2022-12-18T20:13:00.397Z,102782.25
2022-12-18T20:15:49.676Z,102769.75
2022-12-18T20:18:36.522Z,102762.69
2022-12-18T20:21:25.385Z,102753.34
2022-12-18T20:24:12.452Z,102726.13
2022-12-18T20:26:59.283Z,102756.72
2022-12-18T20:29:46.099Z,102763.00
2022-12-18T20:32:37.250Z,102772.53
2022-12-18T20:35:23.947Z,102780.75
2022-12-18T20:38:11.086Z,102772.44
2022-12-18T20:40:59.513Z,102733.19
2022-12-18T20:43:47.289Z,102783.56
2022-12-18T20:46:34.317Z,102775.59
2022-12-18T20:49:22.654Z,102777.38
2022-12-18T20:52:09.421Z,102769.53
2022-12-18T20:54:56.319Z,102756.94
2022-12-18T20:57:45.391Z,102750.38
2022-12-18T21:00:32.020Z,102755.03
2022-12-18T21:03:19.139Z,102753.84
2022-12-18T21:06:07.785Z,102748.59
2022-12-18T21:08:54.684Z,102734.97
2022-12-18T21:11:59.220Z,102748.78
2022-12-18T21:14:46.482Z,102767.44
2022-12-18T21:17:37.421Z,102765.91
2022-12-18T21:20:31.221Z,102746.50
2022-12-18T21:23:19.757Z,102744.13
2022-12-18T21:26:17.562Z,102739.81
2022-12-18T21:29:06.991Z,102737.41
2022-12-18T21:31:55.332Z,102732.69
2022-12-18T21:34:47.638Z,102674.69
2022-12-18T21:37:36.097Z,102723.78
2022-12-18T21:40:25.048Z,102722.72
2022-12-18T21:43:29.643Z,102714.16
2022-12-18T21:46:16.441Z,102723.28
2022-12-18T21:49:04.578Z,102713.50
2022-12-18T21:51:52.289Z,102723.47
2022-12-18T21:54:40.561Z,102725.81
2022-12-18T21:57:29.731Z,102725.72
2022-12-18T22:00:19.644Z,102703.38
2022-12-18T22:03:18.165Z,102714.31
2022-12-18T22:06:09.258Z,102709.53
2022-12-18T22:08:57.422Z,102713.09
2022-12-18T22:11:47.671Z,102725.13
2022-12-18T22:14:35.824Z,102708.72
2022-12-18T22:17:24.904Z,102701.66
2022-12-18T22:20:16.192Z,102700.88
2022-12-18T22:23:05.978Z,102699.66
2022-12-18T22:25:53.179Z,102710.59
2022-12-18T22:29:02.168Z,102702.34
2022-12-18T22:32:12.680Z,102689.41
2022-12-18T22:35:09.165Z,102680.06
2022-12-18T22:38:00.247Z,102679.97
2022-12-18T22:40:46.609Z,102655.25
2022-12-18T22:43:33.527Z,102675.41
2022-12-18T22:46:20.981Z,102664.16
2022-12-18T22:49:13.555Z,102648.94
2022-12-18T22:52:00.004Z,102643.81
2022-12-18T22:54:47.210Z,102630.75
2022-12-18T22:57:34.139Z,102623.69
2022-12-18T23:00:24.658Z,102615.66
2022-12-18T23:03:12.329Z,102612.28
2022-12-18T23:06:05.687Z,102606.03
2022-12-18T23:08:56.011Z,102601.94
2022-12-18T23:11:43.112Z,102596.78
2022-12-18T23:14:30.308Z,102590.81
2022-12-18T23:17:17.118Z,102588.41
2022-12-18T23:20:03.911Z,102589.38
2022-12-18T23:23:01.005Z,102587.97
2022-12-18T23:25:47.578Z,102585.91
2022-12-18T23:28:36.455Z,102553.78
2022-12-18T23:31:25.309Z,102546.03
2022-12-18T23:34:13.968Z,102576.66
2022-12-18T23:37:01.243Z,102574.50
2022-12-18T23:39:49.199Z,102588.03
2022-12-18T23:42:36.108Z,102580.50
2022-12-18T23:45:22.926Z,102577.44
2022-12-18T23:48:09.752Z,102571.09
2022-12-18T23:50:58.166Z,102567.59
2022-12-18T23:53:46.105Z,102524.81
2022-12-18T23:56:35.837Z,102549.09
2022-12-18T23:59:25.579Z,102547.81
